sensor_id;sensor_type;location;lat;lon;timestamp;P1;durP1;ratioP1;P2;durP2;ratioP2
6902;SDS011;20232;49.408;8.702;2023-05-14T04:07:31;6.73;;;6.07;;
6902;SDS011;20232;49.408;8.702;2023-05-14T04:09:56;7.50;;;6.80;;
6902;SDS011;20232;49.408;8.702;2023-05-14T04:12:22;7.40;;;6.80;;
6902;SDS011;20232;49.408;8.702;2023-05-14T04:14:47;7.43;;;6.73;;
6902;SDS011;20232;49.408;8.702;2023-05-14T04:17:13;7.13;;;6.43;;
6902;SDS011;20232;49.408;8.702;2023-05-14T04:19:38;6.77;;;6.10;;
6902;SDS011;20232;49.408;8.702;2023-05-14T04:22:04;7.00;;;6.30;;
6902;SDS011;20232;49.408;8.702;2023-05-14T04:24:30;7.13;;;6.40;;
6902;SDS011;20232;49.408;8.702;2023-05-14T04:26:55;7.10;;;6.40;;
6902;SDS011;20232;49.408;8.702;2023-05-14T04:29:21;7.43;;;6.20;;
6902;SDS011;20232;49.408;8.702;2023-05-14T04:31:47;7.13;;;6.50;;
6902;SDS011;20232;49.408;8.702;2023-05-14T04:34:13;9.70;;;6.73;;
6902;SDS011;20232;49.408;8.702;2023-05-14T04:36:38;7.23;;;6.63;;
6902;SDS011;20232;49.408;8.702;2023-05-14T04:39:04;7.20;;;6.60;;
6902;SDS011;20232;49.408;8.702;2023-05-14T04:41:30;7.63;;;6.83;;
6902;SDS011;20232;49.408;8.702;2023-05-14T04:43:55;6.77;;;6.17;;
6902;SDS011;20232;49.408;8.702;2023-05-14T04:46:21;8.43;;;6.40;;
6902;SDS011;20232;49.408;8.702;2023-05-14T04:48:46;7.27;;;6.23;;
6902;SDS011;20232;49.408;8.702;2023-05-14T04:51:12;7.27;;;6.57;;
6902;SDS011;20232;49.408;8.702;2023-05-14T04:53:38;7.20;;;6.53;;
6902;SDS011;20232;49.408;8.702;2023-05-14T04:56:03;6.30;;;5.80;;
6902;SDS011;20232;49.408;8.702;2023-05-14T04:58:29;6.40;;;5.90;;
6902;SDS011;20232;49.408;8.702;2023-05-14T05:00:56;6.93;;;6.33;;
6902;SDS011;20232;49.408;8.702;2023-05-14T05:03:23;6.90;;;6.30;;
6902;SDS011;20232;49.408;8.702;2023-05-14T05:05:48;7.13;;;6.50;;
6902;SDS011;20232;49.408;8.702;2023-05-14T05:08:14;6.00;;;5.50;;
6902;SDS011;20232;49.408;8.702;2023-05-14T05:10:40;6.80;;;6.20;;
6902;SDS011;20232;49.408;8.702;2023-05-14T05:13:05;6.23;;;5.73;;
6902;SDS011;20232;49.408;8.702;2023-05-14T05:15:31;6.33;;;5.77;;
6902;SDS011;20232;49.408;8.702;2023-05-14T05:17:56;6.67;;;6.00;;
6902;SDS011;20232;49.408;8.702;2023-05-14T05:20:21;5.93;;;5.43;;
6902;SDS011;20232;49.408;8.702;2023-05-14T05:22:47;6.17;;;5.57;;
6902;SDS011;20232;49.408;8.702;2023-05-14T05:25:12;8.13;;;5.53;;
6902;SDS011;20232;49.408;8.702;2023-05-14T05:27:38;5.60;;;5.10;;
6902;SDS011;20232;49.408;8.702;2023-05-14T05:30:03;5.67;;;5.17;;
6902;SDS011;20232;49.408;8.702;2023-05-14T05:32:30;6.23;;;5.57;;
6902;SDS011;20232;49.408;8.702;2023-05-14T05:34:55;5.07;;;4.60;;
6902;SDS011;20232;49.408;8.702;2023-05-14T05:37:21;5.53;;;4.93;;
6902;SDS011;20232;49.408;8.702;2023-05-14T05:39:46;6.03;;;5.27;;
6902;SDS011;20232;49.408;8.702;2023-05-14T05:42:12;5.90;;;5.40;;
6902;SDS011;20232;49.408;8.702;2023-05-14T05:44:38;5.43;;;4.93;;
6902;SDS011;20232;49.408;8.702;2023-05-14T05:47:03;5.33;;;4.77;;
6902;SDS011;20232;49.408;8.702;2023-05-14T05:49:29;5.07;;;4.67;;
6902;SDS011;20232;49.408;8.702;2023-05-14T05:51:55;5.57;;;5.13;;
6902;SDS011;20232;49.408;8.702;2023-05-14T05:54:21;5.47;;;5.00;;
6902;SDS011;20232;49.408;8.702;2023-05-14T05:56:47;5.40;;;5.00;;
6902;SDS011;20232;49.408;8.702;2023-05-14T05:59:12;5.37;;;4.87;;
6902;SDS011;20232;49.408;8.702;2023-05-14T06:01:38;5.83;;;5.20;;
6902;SDS011;20232;49.408;8.702;2023-05-14T06:04:05;4.97;;;4.40;;
6902;SDS011;20232;49.408;8.702;2023-05-14T06:06:30;5.80;;;5.20;;
6902;SDS011;20232;49.408;8.702;2023-05-14T06:08:57;5.47;;;4.97;;
6902;SDS011;20232;49.408;8.702;2023-05-14T06:11:22;5.90;;;5.40;;
6902;SDS011;20232;49.408;8.702;2023-05-14T06:13:48;5.33;;;4.93;;
6902;SDS011;20232;49.408;8.702;2023-05-14T06:16:13;5.30;;;4.90;;
6902;SDS011;20232;49.408;8.702;2023-05-14T06:18:38;6.07;;;5.10;;
6902;SDS011;20232;49.408;8.702;2023-05-14T06:21:04;5.73;;;5.23;;
6902;SDS011;20232;49.408;8.702;2023-05-14T06:23:30;5.03;;;4.63;;
6902;SDS011;20232;49.408;8.702;2023-05-14T06:25:56;5.87;;;4.80;;
6902;SDS011;20232;49.408;8.702;2023-05-14T06:28:21;5.57;;;5.07;;
6902;SDS011;20232;49.408;8.702;2023-05-14T06:30:50;5.23;;;4.73;;
6902;SDS011;20232;49.408;8.702;2023-05-14T06:33:15;6.03;;;5.17;;
6902;SDS011;20232;49.408;8.702;2023-05-14T06:35:40;4.80;;;4.40;;
6902;SDS011;20232;49.408;8.702;2023-05-14T06:38:06;5.10;;;4.70;;
6902;SDS011;20232;49.408;8.702;2023-05-14T06:40:31;4.53;;;4.20;;
6902;SDS011;20232;49.408;8.702;2023-05-14T06:42:57;4.87;;;4.37;;
6902;SDS011;20232;49.408;8.702;2023-05-14T06:45:22;4.70;;;4.30;;
6902;SDS011;20232;49.408;8.702;2023-05-14T06:47:48;3.80;;;3.50;;
6902;SDS011;20232;49.408;8.702;2023-05-14T06:50:13;3.90;;;3.60;;
6902;SDS011;20232;49.408;8.702;2023-05-14T06:52:38;3.70;;;3.40;;
6902;SDS011;20232;49.408;8.702;2023-05-14T06:55:04;5.50;;;3.50;;
6902;SDS011;20232;49.408;8.702;2023-05-14T06:57:30;4.07;;;3.77;;
6902;SDS011;20232;49.408;8.702;2023-05-14T06:59:55;4.20;;;3.90;;
6902;SDS011;20232;49.408;8.702;2023-05-14T07:02:21;4.37;;;3.97;;
6902;SDS011;20232;49.408;8.702;2023-05-14T07:04:46;4.70;;;4.30;;
6902;SDS011;20232;49.408;8.702;2023-05-14T07:07:12;4.33;;;4.03;;
6902;SDS011;20232;49.408;8.702;2023-05-14T07:09:39;4.87;;;4.47;;
6902;SDS011;20232;49.408;8.702;2023-05-14T07:12:06;4.13;;;3.83;;
6902;SDS011;20232;49.408;8.702;2023-05-14T07:14:32;4.10;;;3.80;;
6902;SDS011;20232;49.408;8.702;2023-05-14T07:16:57;4.97;;;4.47;;
6902;SDS011;20232;49.408;8.702;2023-05-14T07:19:23;4.67;;;4.17;;
6902;SDS011;20232;49.408;8.702;2023-05-14T07:21:48;4.00;;;3.70;;
6902;SDS011;20232;49.408;8.702;2023-05-14T07:24:13;4.10;;;3.80;;
6902;SDS011;20232;49.408;8.702;2023-05-14T07:26:39;3.83;;;3.57;;
6902;SDS011;20232;49.408;8.702;2023-05-14T07:29:04;4.00;;;3.70;;
6902;SDS011;20232;49.408;8.702;2023-05-14T07:31:30;4.23;;;3.67;;
6902;SDS011;20232;49.408;8.702;2023-05-14T07:33:55;4.20;;;3.40;;
6902;SDS011;20232;49.408;8.702;2023-05-14T07:36:20;3.60;;;3.20;;
6902;SDS011;20232;49.408;8.702;2023-05-14T07:38:46;3.47;;;3.23;;
6902;SDS011;20232;49.408;8.702;2023-05-14T07:41:11;3.70;;;3.40;;
6902;SDS011;20232;49.408;8.702;2023-05-14T07:43:37;3.43;;;2.90;;
6902;SDS011;20232;49.408;8.702;2023-05-14T07:46:03;3.40;;;3.10;;
6902;SDS011;20232;49.408;8.702;2023-05-14T07:48:28;3.17;;;2.97;;
6902;SDS011;20232;49.408;8.702;2023-05-14T07:50:54;3.63;;;3.33;;
6902;SDS011;20232;49.408;8.702;2023-05-14T07:53:19;3.13;;;2.93;;
6902;SDS011;20232;49.408;8.702;2023-05-14T07:55:46;3.53;;;3.00;;
6902;SDS011;20232;49.408;8.702;2023-05-14T07:58:12;3.90;;;3.60;;
6902;SDS011;20232;49.408;8.702;2023-05-14T08:00:38;4.40;;;3.40;;
6902;SDS011;20232;49.408;8.702;2023-05-14T08:03:03;3.80;;;3.10;;
6902;SDS011;20232;49.408;8.702;2023-05-14T08:05:29;3.43;;;3.13;;
6902;SDS011;20232;49.408;8.702;2023-05-14T08:07:55;3.20;;;2.97;;
6902;SDS011;20232;49.408;8.702;2023-05-14T08:10:20;4.07;;;3.50;;
6902;SDS011;20232;49.408;8.702;2023-05-14T08:12:46;3.50;;;3.30;;
6902;SDS011;20232;49.408;8.702;2023-05-14T08:15:11;4.10;;;3.20;;
6902;SDS011;20232;49.408;8.702;2023-05-14T08:17:37;3.60;;;3.30;;
6902;SDS011;20232;49.408;8.702;2023-05-14T08:20:02;3.30;;;3.00;;
6902;SDS011;20232;49.408;8.702;2023-05-14T08:22:30;4.37;;;3.40;;
6902;SDS011;20232;49.408;8.702;2023-05-14T08:24:55;3.43;;;3.13;;
6902;SDS011;20232;49.408;8.702;2023-05-14T08:27:21;3.80;;;3.40;;
6902;SDS011;20232;49.408;8.702;2023-05-14T08:29:47;3.93;;;3.63;;
6902;SDS011;20232;49.408;8.702;2023-05-14T08:32:12;3.10;;;2.90;;
6902;SDS011;20232;49.408;8.702;2023-05-14T08:34:37;3.70;;;3.40;;
6902;SDS011;20232;49.408;8.702;2023-05-14T08:37:03;3.73;;;3.37;;
6902;SDS011;20232;49.408;8.702;2023-05-14T08:39:28;3.63;;;3.30;;
6902;SDS011;20232;49.408;8.702;2023-05-14T08:41:54;3.40;;;3.10;;
6902;SDS011;20232;49.408;8.702;2023-05-14T08:44:28;4.40;;;4.00;;
6902;SDS011;20232;49.408;8.702;2023-05-14T08:47:03;4.40;;;3.70;;
6902;SDS011;20232;49.408;8.702;2023-05-14T08:49:38;3.97;;;3.67;;
6902;SDS011;20232;49.408;8.702;2023-05-14T08:52:05;5.60;;;3.53;;
6902;SDS011;20232;49.408;8.702;2023-05-14T08:54:30;4.00;;;3.70;;
6902;SDS011;20232;49.408;8.702;2023-05-14T08:56:56;4.27;;;3.97;;
6902;SDS011;20232;49.408;8.702;2023-05-14T08:59:23;3.87;;;3.57;;
6902;SDS011;20232;49.408;8.702;2023-05-14T09:01:50;3.90;;;3.50;;
6902;SDS011;20232;49.408;8.702;2023-05-14T09:04:18;4.77;;;3.67;;
6902;SDS011;20232;49.408;8.702;2023-05-14T09:06:47;4.37;;;3.97;;
6902;SDS011;20232;49.408;8.702;2023-05-14T09:09:14;4.10;;;3.80;;
6902;SDS011;20232;49.408;8.702;2023-05-14T09:11:46;4.17;;;3.87;;
6902;SDS011;20232;49.408;8.702;2023-05-14T09:14:15;4.10;;;3.80;;
6902;SDS011;20232;49.408;8.702;2023-05-14T09:16:42;4.63;;;4.23;;
6902;SDS011;20232;49.408;8.702;2023-05-14T09:19:10;5.07;;;4.30;;
6902;SDS011;20232;49.408;8.702;2023-05-14T09:21:36;4.73;;;4.23;;
6902;SDS011;20232;49.408;8.702;2023-05-14T09:24:02;4.50;;;4.10;;
6902;SDS011;20232;49.408;8.702;2023-05-14T09:26:30;4.47;;;4.17;;
6902;SDS011;20232;49.408;8.702;2023-05-14T09:28:56;4.97;;;4.57;;
6902;SDS011;20232;49.408;8.702;2023-05-14T09:31:24;4.87;;;4.47;;
6902;SDS011;20232;49.408;8.702;2023-05-14T09:33:50;4.70;;;4.30;;
6902;SDS011;20232;49.408;8.702;2023-05-14T09:36:16;4.30;;;4.00;;
6902;SDS011;20232;49.408;8.702;2023-05-14T09:38:41;4.60;;;4.20;;
6902;SDS011;20232;49.408;8.702;2023-05-14T09:41:07;4.50;;;4.10;;
6902;SDS011;20232;49.408;8.702;2023-05-14T09:43:32;4.37;;;4.00;;
6902;SDS011;20232;49.408;8.702;2023-05-14T09:45:57;4.27;;;3.97;;
6902;SDS011;20232;49.408;8.702;2023-05-14T09:48:23;4.37;;;4.07;;
6902;SDS011;20232;49.408;8.702;2023-05-14T09:50:49;4.70;;;4.30;;
6902;SDS011;20232;49.408;8.702;2023-05-14T09:53:16;4.67;;;4.20;;
6902;SDS011;20232;49.408;8.702;2023-05-14T09:55:41;4.00;;;3.70;;
6902;SDS011;20232;49.408;8.702;2023-05-14T09:58:07;4.10;;;3.80;;
6902;SDS011;20232;49.408;8.702;2023-05-14T10:00:32;4.37;;;3.97;;
6902;SDS011;20232;49.408;8.702;2023-05-14T10:02:58;4.50;;;4.10;;
6902;SDS011;20232;49.408;8.702;2023-05-14T10:05:31;4.07;;;3.77;;
6902;SDS011;20232;49.408;8.702;2023-05-14T10:07:58;3.83;;;3.53;;
6902;SDS011;20232;49.408;8.702;2023-05-14T10:10:25;4.23;;;3.90;;
6902;SDS011;20232;49.408;8.702;2023-05-14T10:12:57;3.93;;;3.63;;
6902;SDS011;20232;49.408;8.702;2023-05-14T10:15:29;4.20;;;3.80;;
6902;SDS011;20232;49.408;8.702;2023-05-14T10:17:59;3.83;;;3.53;;
6902;SDS011;20232;49.408;8.702;2023-05-14T10:20:28;4.43;;;3.87;;
6902;SDS011;20232;49.408;8.702;2023-05-14T10:22:54;3.43;;;3.23;;
6902;SDS011;20232;49.408;8.702;2023-05-14T10:25:20;4.00;;;3.70;;
6902;SDS011;20232;49.408;8.702;2023-05-14T10:27:46;5.63;;;4.20;;
6902;SDS011;20232;49.408;8.702;2023-05-14T10:30:11;3.90;;;3.60;;
6902;SDS011;20232;49.408;8.702;2023-05-14T10:32:37;4.40;;;4.00;;
6902;SDS011;20232;49.408;8.702;2023-05-14T10:35:14;5.57;;;3.73;;
6902;SDS011;20232;49.408;8.702;2023-05-14T10:37:40;4.07;;;3.70;;
6902;SDS011;20232;49.408;8.702;2023-05-14T10:40:06;3.97;;;3.67;;
6902;SDS011;20232;49.408;8.702;2023-05-14T10:42:32;3.50;;;3.30;;
6902;SDS011;20232;49.408;8.702;2023-05-14T10:45:08;4.00;;;3.70;;
6902;SDS011;20232;49.408;8.702;2023-05-14T10:47:38;4.43;;;3.80;;
6902;SDS011;20232;49.408;8.702;2023-05-14T10:50:06;4.37;;;4.03;;
6902;SDS011;20232;49.408;8.702;2023-05-14T10:52:33;3.70;;;3.40;;
6902;SDS011;20232;49.408;8.702;2023-05-14T10:55:03;3.57;;;3.27;;
6902;SDS011;20232;49.408;8.702;2023-05-14T10:57:31;3.63;;;3.40;;
6902;SDS011;20232;49.408;8.702;2023-05-14T10:59:59;3.87;;;3.57;;
6902;SDS011;20232;49.408;8.702;2023-05-14T11:02:34;3.70;;;3.50;;
6902;SDS011;20232;49.408;8.702;2023-05-14T11:05:02;5.23;;;3.93;;
6902;SDS011;20232;49.408;8.702;2023-05-14T11:07:33;3.93;;;3.43;;
6902;SDS011;20232;49.408;8.702;2023-05-14T11:10:05;3.60;;;3.40;;
6902;SDS011;20232;49.408;8.702;2023-05-14T11:12:33;4.20;;;3.50;;
6902;SDS011;20232;49.408;8.702;2023-05-14T11:15:00;3.87;;;3.57;;
6902;SDS011;20232;49.408;8.702;2023-05-14T11:17:28;3.50;;;3.30;;
6902;SDS011;20232;49.408;8.702;2023-05-14T11:19:54;3.93;;;3.57;;
6902;SDS011;20232;49.408;8.702;2023-05-14T11:22:20;4.47;;;3.63;;
6902;SDS011;20232;49.408;8.702;2023-05-14T11:24:46;3.53;;;3.20;;
6902;SDS011;20232;49.408;8.702;2023-05-14T11:27:11;3.77;;;3.47;;
6902;SDS011;20232;49.408;8.702;2023-05-14T11:29:37;4.13;;;3.47;;
6902;SDS011;20232;49.408;8.702;2023-05-14T11:32:05;4.20;;;3.80;;
6902;SDS011;20232;49.408;8.702;2023-05-14T11:34:31;4.13;;;3.73;;
6902;SDS011;20232;49.408;8.702;2023-05-14T11:37:01;4.23;;;3.87;;
6902;SDS011;20232;49.408;8.702;2023-05-14T11:39:27;4.17;;;3.80;;
6902;SDS011;20232;49.408;8.702;2023-05-14T11:41:52;3.20;;;2.90;;
6902;SDS011;20232;49.408;8.702;2023-05-14T11:44:17;3.73;;;3.43;;
6902;SDS011;20232;49.408;8.702;2023-05-14T11:46:52;3.90;;;3.50;;
6902;SDS011;20232;49.408;8.702;2023-05-14T11:49:24;3.43;;;3.23;;
6902;SDS011;20232;49.408;8.702;2023-05-14T11:51:55;3.30;;;3.10;;
6902;SDS011;20232;49.408;8.702;2023-05-14T11:54:24;4.47;;;3.47;;
6902;SDS011;20232;49.408;8.702;2023-05-14T11:56:51;4.67;;;3.60;;
6902;SDS011;20232;49.408;8.702;2023-05-14T11:59:16;3.77;;;3.47;;
6902;SDS011;20232;49.408;8.702;2023-05-14T12:01:46;3.87;;;3.57;;
6902;SDS011;20232;49.408;8.702;2023-05-14T12:04:12;3.47;;;3.27;;
6902;SDS011;20232;49.408;8.702;2023-05-14T12:06:38;3.67;;;3.33;;
6902;SDS011;20232;49.408;8.702;2023-05-14T12:09:04;3.17;;;2.97;;
6902;SDS011;20232;49.408;8.702;2023-05-14T12:11:30;3.10;;;2.90;;
6902;SDS011;20232;49.408;8.702;2023-05-14T12:13:57;3.50;;;3.30;;
6902;SDS011;20232;49.408;8.702;2023-05-14T12:16:28;3.10;;;2.90;;
6902;SDS011;20232;49.408;8.702;2023-05-14T12:18:57;3.60;;;3.20;;
6902;SDS011;20232;49.408;8.702;2023-05-14T12:21:25;3.30;;;3.00;;
6902;SDS011;20232;49.408;8.702;2023-05-14T12:23:55;2.90;;;2.70;;
6902;SDS011;20232;49.408;8.702;2023-05-14T12:26:22;3.90;;;3.00;;
6902;SDS011;20232;49.408;8.702;2023-05-14T12:28:47;3.47;;;3.10;;
6902;SDS011;20232;49.408;8.702;2023-05-14T12:31:14;3.30;;;3.00;;
6902;SDS011;20232;49.408;8.702;2023-05-14T12:33:39;3.50;;;3.20;;
6902;SDS011;20232;49.408;8.702;2023-05-14T12:36:05;3.37;;;3.17;;
6902;SDS011;20232;49.408;8.702;2023-05-14T12:38:30;3.50;;;3.20;;
6902;SDS011;20232;49.408;8.702;2023-05-14T12:40:56;3.20;;;3.00;;
6902;SDS011;20232;49.408;8.702;2023-05-14T12:43:21;3.97;;;3.47;;
6902;SDS011;20232;49.408;8.702;2023-05-14T12:45:47;3.53;;;3.23;;
6902;SDS011;20232;49.408;8.702;2023-05-14T12:48:13;3.40;;;3.10;;
6902;SDS011;20232;49.408;8.702;2023-05-14T12:50:38;3.20;;;3.00;;
6902;SDS011;20232;49.408;8.702;2023-05-14T12:53:03;6.07;;;5.23;;
6902;SDS011;20232;49.408;8.702;2023-05-14T12:55:29;3.30;;;3.00;;
6902;SDS011;20232;49.408;8.702;2023-05-14T12:57:55;3.80;;;3.50;;
6902;SDS011;20232;49.408;8.702;2023-05-14T13:00:21;3.67;;;3.37;;
6902;SDS011;20232;49.408;8.702;2023-05-14T13:02:47;4.37;;;3.93;;
6902;SDS011;20232;49.408;8.702;2023-05-14T13:05:12;3.40;;;3.20;;
6902;SDS011;20232;49.408;8.702;2023-05-14T13:07:38;3.70;;;3.40;;
6902;SDS011;20232;49.408;8.702;2023-05-14T13:10:03;4.83;;;3.30;;
6902;SDS011;20232;49.408;8.702;2023-05-14T13:12:30;3.70;;;3.40;;
6902;SDS011;20232;49.408;8.702;2023-05-14T13:14:55;3.73;;;3.43;;
6902;SDS011;20232;49.408;8.702;2023-05-14T13:17:20;3.90;;;3.60;;
6902;SDS011;20232;49.408;8.702;2023-05-14T13:19:46;3.40;;;3.10;;
6902;SDS011;20232;49.408;8.702;2023-05-14T13:22:11;4.43;;;3.77;;
6902;SDS011;20232;49.408;8.702;2023-05-14T13:24:37;4.17;;;3.87;;
6902;SDS011;20232;49.408;8.702;2023-05-14T13:27:02;3.80;;;3.50;;
6902;SDS011;20232;49.408;8.702;2023-05-14T13:29:28;4.10;;;3.70;;
6902;SDS011;20232;49.408;8.702;2023-05-14T13:31:55;3.67;;;3.37;;
6902;SDS011;20232;49.408;8.702;2023-05-14T13:34:20;3.37;;;3.00;;
6902;SDS011;20232;49.408;8.702;2023-05-14T13:36:46;4.93;;;3.20;;
6902;SDS011;20232;49.408;8.702;2023-05-14T13:39:13;3.40;;;3.10;;
6902;SDS011;20232;49.408;8.702;2023-05-14T13:41:39;3.30;;;3.00;;
6902;SDS011;20232;49.408;8.702;2023-05-14T13:44:05;2.83;;;2.40;;
6902;SDS011;20232;49.408;8.702;2023-05-14T13:46:31;3.00;;;2.80;;
6902;SDS011;20232;49.408;8.702;2023-05-14T13:48:56;2.80;;;2.60;;
6902;SDS011;20232;49.408;8.702;2023-05-14T13:51:22;2.90;;;2.30;;
6902;SDS011;20232;49.408;8.702;2023-05-14T13:53:47;2.47;;;2.37;;
6902;SDS011;20232;49.408;8.702;2023-05-14T13:56:12;2.90;;;2.50;;
6902;SDS011;20232;49.408;8.702;2023-05-14T13:58:38;2.30;;;2.20;;
6902;SDS011;20232;49.408;8.702;2023-05-14T14:01:04;2.57;;;2.40;;
6902;SDS011;20232;49.408;8.702;2023-05-14T14:03:29;2.43;;;2.27;;
6902;SDS011;20232;49.408;8.702;2023-05-14T14:05:55;2.60;;;2.40;;
6902;SDS011;20232;49.408;8.702;2023-05-14T14:08:20;2.30;;;2.20;;
6902;SDS011;20232;49.408;8.702;2023-05-14T14:10:45;2.50;;;2.30;;
6902;SDS011;20232;49.408;8.702;2023-05-14T14:13:11;2.27;;;2.10;;
6902;SDS011;20232;49.408;8.702;2023-05-14T14:15:36;2.93;;;2.73;;
6902;SDS011;20232;49.408;8.702;2023-05-14T14:18:02;5.30;;;2.60;;
6902;SDS011;20232;49.408;8.702;2023-05-14T14:20:27;2.67;;;2.47;;
6902;SDS011;20232;49.408;8.702;2023-05-14T14:22:53;3.43;;;2.57;;
6902;SDS011;20232;49.408;8.702;2023-05-14T14:25:19;2.77;;;2.57;;
6902;SDS011;20232;49.408;8.702;2023-05-14T14:27:44;3.03;;;2.70;;
6902;SDS011;20232;49.408;8.702;2023-05-14T14:30:10;2.70;;;2.50;;
6902;SDS011;20232;49.408;8.702;2023-05-14T14:32:46;3.03;;;2.50;;
6902;SDS011;20232;49.408;8.702;2023-05-14T14:35:12;2.77;;;2.20;;
6902;SDS011;20232;49.408;8.702;2023-05-14T14:37:42;2.60;;;2.20;;
6902;SDS011;20232;49.408;8.702;2023-05-14T14:40:12;2.60;;;2.40;;
6902;SDS011;20232;49.408;8.702;2023-05-14T14:42:38;2.80;;;2.60;;
6902;SDS011;20232;49.408;8.702;2023-05-14T14:45:03;2.67;;;2.47;;
6902;SDS011;20232;49.408;8.702;2023-05-14T14:47:29;2.67;;;2.23;;
6902;SDS011;20232;49.408;8.702;2023-05-14T14:49:55;2.43;;;2.23;;
6902;SDS011;20232;49.408;8.702;2023-05-14T14:52:21;2.60;;;2.40;;
6902;SDS011;20232;49.408;8.702;2023-05-14T14:54:47;2.73;;;2.50;;
6902;SDS011;20232;49.408;8.702;2023-05-14T14:57:13;2.37;;;2.27;;
6902;SDS011;20232;49.408;8.702;2023-05-14T14:59:38;3.50;;;2.43;;
6902;SDS011;20232;49.408;8.702;2023-05-14T15:02:04;3.90;;;2.70;;
6902;SDS011;20232;49.408;8.702;2023-05-14T15:04:30;2.70;;;2.50;;
6902;SDS011;20232;49.408;8.702;2023-05-14T15:06:58;2.80;;;2.60;;
6902;SDS011;20232;49.408;8.702;2023-05-14T15:09:23;2.70;;;2.50;;
6902;SDS011;20232;49.408;8.702;2023-05-14T15:11:49;2.70;;;2.50;;
6902;SDS011;20232;49.408;8.702;2023-05-14T15:14:14;3.33;;;2.67;;
6902;SDS011;20232;49.408;8.702;2023-05-14T15:16:40;2.43;;;2.33;;
6902;SDS011;20232;49.408;8.702;2023-05-14T15:19:05;2.77;;;2.50;;
6902;SDS011;20232;49.408;8.702;2023-05-14T15:21:31;2.47;;;2.27;;
6902;SDS011;20232;49.408;8.702;2023-05-14T15:23:57;2.53;;;2.43;;
6902;SDS011;20232;49.408;8.702;2023-05-14T15:26:22;2.57;;;2.30;;
6902;SDS011;20232;49.408;8.702;2023-05-14T15:28:48;2.33;;;2.20;;
6902;SDS011;20232;49.408;8.702;2023-05-14T15:31:13;2.60;;;2.40;;
6902;SDS011;20232;49.408;8.702;2023-05-14T15:33:39;2.60;;;2.40;;
6902;SDS011;20232;49.408;8.702;2023-05-14T15:36:05;3.50;;;3.20;;
6902;SDS011;20232;49.408;8.702;2023-05-14T15:38:31;2.77;;;2.57;;
6902;SDS011;20232;49.408;8.702;2023-05-14T15:40:57;2.40;;;2.30;;
6902;SDS011;20232;49.408;8.702;2023-05-14T15:43:22;3.30;;;2.50;;
6902;SDS011;20232;49.408;8.702;2023-05-14T15:45:48;2.87;;;2.63;;
6902;SDS011;20232;49.408;8.702;2023-05-14T15:48:14;3.07;;;2.40;;
6902;SDS011;20232;49.408;8.702;2023-05-14T15:50:39;2.40;;;2.20;;
6902;SDS011;20232;49.408;8.702;2023-05-14T15:53:06;2.40;;;2.20;;
6902;SDS011;20232;49.408;8.702;2023-05-14T15:55:31;1.97;;;1.87;;
6902;SDS011;20232;49.408;8.702;2023-05-14T15:57:57;2.47;;;2.27;;
6902;SDS011;20232;49.408;8.702;2023-05-14T16:00:22;2.30;;;2.10;;
6902;SDS011;20232;49.408;8.702;2023-05-14T16:02:48;2.20;;;2.00;;
6902;SDS011;20232;49.408;8.702;2023-05-14T16:05:14;2.00;;;1.80;;
6902;SDS011;20232;49.408;8.702;2023-05-14T16:07:40;2.30;;;1.90;;
6902;SDS011;20232;49.408;8.702;2023-05-14T16:10:06;2.17;;;2.07;;
6902;SDS011;20232;49.408;8.702;2023-05-14T16:12:32;1.77;;;1.67;;
6902;SDS011;20232;49.408;8.702;2023-05-14T16:14:57;1.90;;;1.80;;
6902;SDS011;20232;49.408;8.702;2023-05-14T16:17:24;2.13;;;2.03;;
6902;SDS011;20232;49.408;8.702;2023-05-14T16:19:54;2.27;;;1.97;;
6902;SDS011;20232;49.408;8.702;2023-05-14T16:22:19;2.20;;;2.10;;
6902;SDS011;20232;49.408;8.702;2023-05-14T16:24:45;2.03;;;1.93;;
6902;SDS011;20232;49.408;8.702;2023-05-14T16:27:10;2.50;;;2.30;;
6902;SDS011;20232;49.408;8.702;2023-05-14T16:29:35;2.80;;;2.60;;
6902;SDS011;20232;49.408;8.702;2023-05-14T16:32:01;2.70;;;2.40;;
6902;SDS011;20232;49.408;8.702;2023-05-14T16:34:26;3.53;;;3.13;;
6902;SDS011;20232;49.408;8.702;2023-05-14T16:36:52;2.97;;;2.77;;
6902;SDS011;20232;49.408;8.702;2023-05-14T16:39:17;3.00;;;2.80;;
6902;SDS011;20232;49.408;8.702;2023-05-14T16:41:43;4.00;;;2.80;;
6902;SDS011;20232;49.408;8.702;2023-05-14T16:44:08;3.63;;;2.80;;
6902;SDS011;20232;49.408;8.702;2023-05-14T16:46:33;3.97;;;2.70;;
6902;SDS011;20232;49.408;8.702;2023-05-14T16:48:59;2.53;;;2.37;;
6902;SDS011;20232;49.408;8.702;2023-05-14T16:51:26;2.57;;;2.37;;
6902;SDS011;20232;49.408;8.702;2023-05-14T16:53:51;2.47;;;2.27;;
6902;SDS011;20232;49.408;8.702;2023-05-14T16:56:16;2.53;;;2.33;;
6902;SDS011;20232;49.408;8.702;2023-05-14T16:58:42;3.77;;;2.67;;
6902;SDS011;20232;49.408;8.702;2023-05-14T17:01:07;2.70;;;2.50;;
6902;SDS011;20232;49.408;8.702;2023-05-14T17:03:33;2.63;;;2.43;;
6902;SDS011;20232;49.408;8.702;2023-05-14T17:05:58;3.73;;;3.13;;
6902;SDS011;20232;49.408;8.702;2023-05-14T17:08:23;2.63;;;2.43;;
6902;SDS011;20232;49.408;8.702;2023-05-14T17:10:49;2.70;;;2.50;;
6902;SDS011;20232;49.408;8.702;2023-05-14T17:13:14;3.20;;;2.87;;
6902;SDS011;20232;49.408;8.702;2023-05-14T17:15:40;3.00;;;2.80;;
6902;SDS011;20232;49.408;8.702;2023-05-14T17:18:06;2.57;;;2.43;;
6902;SDS011;20232;49.408;8.702;2023-05-14T17:20:32;2.80;;;2.60;;
6902;SDS011;20232;49.408;8.702;2023-05-14T17:22:57;2.40;;;2.20;;
6902;SDS011;20232;49.408;8.702;2023-05-14T17:25:23;3.97;;;2.70;;
6902;SDS011;20232;49.408;8.702;2023-05-14T17:27:50;2.70;;;2.43;;
6902;SDS011;20232;49.408;8.702;2023-05-14T17:30:16;2.70;;;2.50;;
6902;SDS011;20232;49.408;8.702;2023-05-14T17:32:41;2.80;;;2.60;;
6902;SDS011;20232;49.408;8.702;2023-05-14T17:35:06;2.80;;;2.60;;
6902;SDS011;20232;49.408;8.702;2023-05-14T17:37:33;2.47;;;2.30;;
6902;SDS011;20232;49.408;8.702;2023-05-14T17:40:00;2.53;;;2.33;;
6902;SDS011;20232;49.408;8.702;2023-05-14T17:42:26;3.00;;;2.70;;
6902;SDS011;20232;49.408;8.702;2023-05-14T17:44:51;3.13;;;2.90;;
6902;SDS011;20232;49.408;8.702;2023-05-14T17:47:17;2.67;;;2.47;;
6902;SDS011;20232;49.408;8.702;2023-05-14T17:49:44;2.83;;;2.60;;
6902;SDS011;20232;49.408;8.702;2023-05-14T17:52:10;3.00;;;2.40;;
6902;SDS011;20232;49.408;8.702;2023-05-14T17:54:35;4.13;;;2.90;;
6902;SDS011;20232;49.408;8.702;2023-05-14T17:57:01;3.37;;;2.97;;
6902;SDS011;20232;49.408;8.702;2023-05-14T17:59:27;4.83;;;3.00;;
6902;SDS011;20232;49.408;8.702;2023-05-14T18:01:52;3.60;;;3.30;;
6902;SDS011;20232;49.408;8.702;2023-05-14T18:04:17;2.80;;;2.63;;
6902;SDS011;20232;49.408;8.702;2023-05-14T18:06:44;4.53;;;4.13;;
6902;SDS011;20232;49.408;8.702;2023-05-14T18:09:09;6.03;;;2.80;;
6902;SDS011;20232;49.408;8.702;2023-05-14T18:11:35;3.07;;;2.77;;
6902;SDS011;20232;49.408;8.702;2023-05-14T18:14:01;3.00;;;2.80;;
6902;SDS011;20232;49.408;8.702;2023-05-14T18:16:26;2.73;;;2.53;;
6902;SDS011;20232;49.408;8.702;2023-05-14T18:18:52;2.70;;;2.40;;
6902;SDS011;20232;49.408;8.702;2023-05-14T18:21:18;2.70;;;2.50;;
6902;SDS011;20232;49.408;8.702;2023-05-14T18:23:43;4.07;;;3.10;;
6902;SDS011;20232;49.408;8.702;2023-05-14T18:26:08;3.33;;;2.80;;
6902;SDS011;20232;49.408;8.702;2023-05-14T18:28:35;2.87;;;2.67;;
6902;SDS011;20232;49.408;8.702;2023-05-14T18:31:00;3.60;;;3.10;;
6902;SDS011;20232;49.408;8.702;2023-05-14T18:33:28;3.23;;;2.93;;
6902;SDS011;20232;49.408;8.702;2023-05-14T18:35:56;3.17;;;2.90;;
6902;SDS011;20232;49.408;8.702;2023-05-14T18:38:22;3.30;;;3.00;;
6902;SDS011;20232;49.408;8.702;2023-05-14T18:40:47;3.60;;;2.67;;
6902;SDS011;20232;49.408;8.702;2023-05-14T18:43:16;2.97;;;2.73;;
6902;SDS011;20232;49.408;8.702;2023-05-14T18:45:42;3.80;;;3.40;;
6902;SDS011;20232;49.408;8.702;2023-05-14T18:48:10;2.70;;;2.50;;
6902;SDS011;20232;49.408;8.702;2023-05-14T18:50:35;2.90;;;2.60;;
6902;SDS011;20232;49.408;8.702;2023-05-14T18:53:01;2.13;;;2.03;;
6902;SDS011;20232;49.408;8.702;2023-05-14T18:55:26;2.60;;;2.40;;
6902;SDS011;20232;49.408;8.702;2023-05-14T18:57:51;3.50;;;3.20;;
6902;SDS011;20232;49.408;8.702;2023-05-14T19:00:17;3.83;;;2.60;;